createdAt,value
2023-05-10T00:02:27.945Z,101306.24
2023-05-10T00:07:30.969Z,101305.34
2023-05-10T00:12:33.765Z,101301.45
2023-05-10T00:17:36.649Z,101295.63
2023-05-10T00:22:39.541Z,101288.72
2023-05-10T00:27:42.391Z,101286.52
2023-05-10T00:32:45.378Z,101282.41
2023-05-10T00:37:48.567Z,101279.42
2023-05-10T00:42:51.561Z,101274.06
2023-05-10T00:47:56.391Z,101271.95
2023-05-10T00:53:00.619Z,101269.81
2023-05-10T00:58:03.653Z,101265.00
2023-05-10T01:03:06.875Z,101270.46
2023-05-10T01:08:09.935Z,101266.25
2023-05-10T01:13:13.213Z,101261.27
2023-05-10T01:18:16.661Z,101259.68
2023-05-10T01:24:07.644Z,101253.13
2023-05-10T01:29:19.268Z,101254.63
2023-05-10T01:34:26.429Z,101258.88
2023-05-10T01:39:33.649Z,101254.99
2023-05-10T01:45:03.291Z,101253.23
2023-05-10T01:50:09.905Z,101251.02
2023-05-10T01:55:17.069Z,101244.91
2023-05-10T02:00:19.943Z,101242.45
2023-05-10T02:05:22.856Z,101236.57
2023-05-10T02:10:25.925Z,101236.59
2023-05-10T02:15:28.774Z,101235.42
2023-05-10T02:20:31.488Z,101232.65
2023-05-10T02:25:34.337Z,101230.83
2023-05-10T02:30:37.212Z,101231.41
2023-05-10T02:35:40.092Z,101233.52
2023-05-10T02:40:43.626Z,101239.13
2023-05-10T02:45:48.253Z,101245.00
2023-05-10T02:50:52.471Z,101240.35
2023-05-10T02:55:55.310Z,101243.98
2023-05-10T03:00:58.149Z,101245.75
2023-05-10T03:06:01.027Z,101242.20
2023-05-10T03:11:50.622Z,101238.86
2023-05-10T03:17:17.275Z,101242.90
2023-05-10T03:22:30.222Z,101249.70
2023-05-10T03:27:33.452Z,101248.52
2023-05-10T03:32:36.875Z,101245.59
2023-05-10T03:37:39.987Z,101245.95
2023-05-10T03:42:42.866Z,101242.48
2023-05-10T03:47:45.610Z,101240.16
2023-05-10T03:52:49.047Z,101234.98
2023-05-10T03:57:51.816Z,101235.46
2023-05-10T04:02:54.622Z,101238.20
2023-05-10T04:07:57.469Z,101236.89
2023-05-10T04:13:00.619Z,101237.39
2023-05-10T04:18:03.623Z,101234.77
2023-05-10T04:23:06.614Z,101239.85
2023-05-10T04:28:09.703Z,101245.84
2023-05-10T04:33:12.512Z,101245.87
2023-05-10T04:38:15.216Z,101246.99
2023-05-10T04:43:18.103Z,101251.49
2023-05-10T04:48:21.006Z,101254.72
2023-05-10T04:53:23.788Z,101249.62
2023-05-10T04:58:27.056Z,101252.72
2023-05-10T05:03:29.880Z,101249.56
2023-05-10T05:08:33.040Z,101247.73
2023-05-10T05:13:35.933Z,101250.71
2023-05-10T05:18:39.895Z,101249.23
2023-05-10T05:23:42.656Z,101248.16
2023-05-10T05:28:45.486Z,101245.08
2023-05-10T05:33:48.395Z,101242.21
2023-05-10T05:38:51.176Z,101244.69
2023-05-10T05:43:54.005Z,101245.79
2023-05-10T05:48:56.907Z,101246.50
2023-05-10T05:54:00.033Z,101244.45
2023-05-10T05:59:03.029Z,101246.02
2023-05-10T06:04:05.898Z,101253.94
2023-05-10T06:09:09.752Z,101253.39
2023-05-10T06:14:12.700Z,101251.36
2023-05-10T06:19:15.559Z,101253.09
2023-05-10T06:24:18.370Z,101251.29
2023-05-10T06:29:21.199Z,101251.43
2023-05-10T06:34:24.500Z,101251.83
2023-05-10T06:39:27.382Z,101250.08
2023-05-10T06:44:30.101Z,101240.21
2023-05-10T06:49:37.026Z,101240.55
2023-05-10T06:54:39.894Z,101236.10
2023-05-10T06:59:43.349Z,101238.31
2023-05-10T07:04:46.315Z,101236.67
2023-05-10T07:09:50.755Z,101233.48
2023-05-10T07:14:53.602Z,101228.30
2023-05-10T07:19:56.371Z,101226.87
2023-05-10T07:24:59.477Z,101225.83
2023-05-10T07:30:02.591Z,101221.85
2023-05-10T07:35:06.529Z,101225.60
2023-05-10T07:40:10.105Z,101228.16
2023-05-10T07:45:12.901Z,101226.63
2023-05-10T07:50:16.475Z,101228.14
2023-05-10T07:55:19.881Z,101226.09
2023-05-10T08:00:22.724Z,101227.84
2023-05-10T08:05:25.514Z,101218.36
2023-05-10T08:10:28.536Z,101220.20
2023-05-10T08:15:31.349Z,101219.48
2023-05-10T08:20:34.225Z,101216.12
2023-05-10T08:25:39.018Z,101206.31
2023-05-10T08:30:41.829Z,101206.83
2023-05-10T08:35:44.641Z,101203.89
2023-05-10T08:40:47.857Z,101207.09
2023-05-10T08:45:50.863Z,101210.72
2023-05-10T08:50:57.710Z,101211.42
2023-05-10T08:56:01.934Z,101203.74
2023-05-10T09:01:08.631Z,101207.25
2023-05-10T09:06:12.851Z,101203.32
2023-05-10T09:11:15.563Z,101197.66
2023-05-10T09:16:21.640Z,101197.92
2023-05-10T09:21:25.919Z,101192.21
2023-05-10T09:26:28.919Z,101181.06
2023-05-10T09:31:55.680Z,101184.11
2023-05-10T09:37:03.765Z,101188.25
2023-05-10T09:42:08.739Z,101177.27
2023-05-10T09:47:19.510Z,101185.58
2023-05-10T09:52:22.365Z,101187.05
2023-05-10T11:08:47.134Z,101128.55
2023-05-10T11:13:51.217Z,101122.48
2023-05-10T11:19:03.095Z,101122.42
2023-05-10T11:24:14.434Z,101118.23
2023-05-10T11:29:17.297Z,101121.70
2023-05-10T11:34:31.466Z,101117.02
2023-05-10T11:39:34.818Z,101117.32
2023-05-10T11:44:37.684Z,101108.73
2023-05-10T11:49:40.682Z,101106.02
2023-05-10T11:54:53.682Z,101105.67
2023-05-10T11:59:57.488Z,101102.51
2023-05-10T12:05:00.574Z,101100.77
2023-05-10T12:10:11.495Z,101092.04
2023-05-10T12:15:22.496Z,101102.70
2023-05-10T12:20:25.561Z,101100.23
2023-05-10T12:25:36.819Z,101090.49
2023-05-10T12:30:39.835Z,101087.59
2023-05-10T12:35:53.499Z,101095.36
2023-05-10T12:40:59.475Z,101086.50
2023-05-10T12:46:13.315Z,101082.95
2023-05-10T12:51:18.511Z,101082.79
2023-05-10T12:56:21.566Z,101076.11
2023-05-10T13:01:24.355Z,101072.45
2023-05-10T13:06:27.152Z,101068.98
2023-05-10T13:11:30.012Z,101065.64
2023-05-10T13:16:33.474Z,101064.23
2023-05-10T13:21:36.945Z,101064.17
2023-05-10T13:26:39.915Z,101058.84
2023-05-10T13:31:42.955Z,101054.35
2023-05-10T13:36:46.131Z,101051.96
2023-05-10T13:41:49.199Z,101050.88
2023-05-10T13:46:52.096Z,101051.71
2023-05-10T13:51:55.033Z,101055.25
2023-05-10T13:56:57.867Z,101044.22
2023-05-10T14:02:01.757Z,101038.02
2023-05-10T14:07:04.687Z,101037.23
2023-05-10T14:12:07.384Z,101033.55
2023-05-10T14:17:12.120Z,101031.70
2023-05-10T14:22:15.330Z,101023.21
2023-05-10T14:27:18.052Z,101026.53
2023-05-10T14:32:20.910Z,101019.04
2023-05-10T14:37:23.846Z,101024.10
2023-05-10T14:42:26.791Z,101019.58
2023-05-10T14:47:29.770Z,101012.77
2023-05-10T14:52:34.280Z,101011.71
2023-05-10T14:57:37.425Z,101014.41
2023-05-10T15:02:40.294Z,101015.67
2023-05-10T15:07:45.126Z,101014.54
2023-05-10T15:12:47.918Z,101006.05
2023-05-10T15:17:50.684Z,101011.28
2023-05-10T15:22:53.551Z,101008.45
2023-05-10T15:27:56.522Z,101002.91
2023-05-10T15:32:59.502Z,101001.17
2023-05-10T15:38:02.534Z,101003.86
2023-05-10T15:43:06.292Z,101001.40
2023-05-10T15:48:09.076Z,101005.55
2023-05-10T15:53:11.899Z,100995.66
2023-05-10T15:58:14.667Z,100994.86
2023-05-10T16:03:17.509Z,100997.27
2023-05-10T16:08:20.351Z,100999.01
2023-05-10T16:13:23.261Z,100995.86
2023-05-10T16:18:26.216Z,100994.79
2023-05-10T16:23:29.296Z,101001.96
2023-05-10T16:28:32.434Z,101000.12
2023-05-10T16:33:35.228Z,100999.30
2023-05-10T16:38:38.391Z,101000.67
2023-05-10T16:43:41.134Z,101001.63
2023-05-10T16:48:43.898Z,101005.23
2023-05-10T16:53:46.659Z,101009.17
2023-05-10T16:58:50.068Z,101011.35
2023-05-10T17:03:52.980Z,101017.27
2023-05-10T17:08:55.876Z,101017.63
2023-05-10T17:13:59.614Z,101022.83
2023-05-10T17:19:02.738Z,101021.42
2023-05-10T17:24:05.720Z,101028.39
2023-05-10T17:29:08.505Z,101034.95
2023-05-10T17:34:11.680Z,101032.97
2023-05-10T17:39:14.416Z,101039.88
2023-05-10T17:44:17.182Z,101041.17
2023-05-10T17:49:19.959Z,101050.85
2023-05-10T17:54:22.683Z,101052.45
2023-05-10T17:59:25.587Z,101052.95
2023-05-10T18:04:28.542Z,101056.38
2023-05-10T18:09:31.843Z,101058.99
2023-05-10T18:14:40.726Z,101062.02
2023-05-10T18:19:44.322Z,101065.25
2023-05-10T18:24:47.184Z,101072.82
2023-05-10T18:29:49.957Z,101078.56
2023-05-10T18:34:54.956Z,101086.24
2023-05-10T18:39:58.587Z,101093.61
2023-05-10T18:45:01.346Z,101100.52
2023-05-10T18:50:07.669Z,101100.80
2023-05-10T18:55:10.598Z,101106.38
2023-05-10T19:00:13.640Z,101105.81
2023-05-10T19:05:16.703Z,101109.92
2023-05-10T19:10:19.860Z,101111.72
2023-05-10T19:15:22.976Z,101113.66
2023-05-10T19:20:26.079Z,101114.10
2023-05-10T19:25:32.885Z,101114.59
2023-05-10T19:30:36.522Z,101117.68
2023-05-10T19:35:40.074Z,101119.90
2023-05-10T19:40:43.333Z,101115.41
2023-05-10T19:45:46.081Z,101118.16
2023-05-10T19:50:48.857Z,101119.73
2023-05-10T19:55:51.590Z,101122.88
2023-05-10T20:00:54.377Z,101126.11
2023-05-10T20:05:57.141Z,101122.66
2023-05-10T20:11:02.569Z,101129.00
2023-05-10T20:16:06.261Z,101135.77
2023-05-10T20:21:09.096Z,101131.36
2023-05-10T20:26:12.505Z,101131.13
2023-05-10T20:31:15.289Z,101129.33
2023-05-10T20:36:18.104Z,101129.94
2023-05-10T20:41:20.927Z,101133.17
2023-05-10T20:46:23.773Z,101133.23
2023-05-10T20:51:27.233Z,101143.84
2023-05-10T20:56:31.130Z,101147.15
2023-05-10T21:01:33.958Z,101152.45
2023-05-10T21:06:36.839Z,101156.38
2023-05-10T21:11:39.687Z,101157.20
2023-05-10T21:16:42.454Z,101157.24
2023-05-10T21:21:45.478Z,101166.14
2023-05-10T21:26:48.293Z,101170.35
2023-05-10T21:31:51.466Z,101169.02
2023-05-10T21:36:54.402Z,101169.96
2023-05-10T21:41:57.398Z,101168.65
2023-05-10T21:47:00.109Z,101170.41
2023-05-10T21:52:02.891Z,101171.52
2023-05-10T21:57:05.584Z,101173.89
2023-05-10T22:02:08.411Z,101178.90
2023-05-10T22:07:11.491Z,101178.88
2023-05-10T22:12:14.470Z,101179.18
2023-05-10T22:17:17.355Z,101181.39
2023-05-10T22:22:20.085Z,101186.95
2023-05-10T22:27:22.830Z,101191.86
2023-05-10T22:32:25.659Z,101198.05
2023-05-10T22:37:28.417Z,101198.81
2023-05-10T22:42:31.144Z,101203.81
2023-05-10T22:47:33.985Z,101206.86
2023-05-10T22:52:38.878Z,101211.49
2023-05-10T22:57:41.650Z,101208.09
2023-05-10T23:02:44.777Z,101209.02
2023-05-10T23:07:52.909Z,101212.04
2023-05-10T23:12:56.145Z,101218.45
2023-05-10T23:18:02.569Z,101217.02
2023-05-10T23:23:05.420Z,101220.84
2023-05-10T23:28:08.113Z,101222.73
2023-05-10T23:33:10.995Z,101218.48
2023-05-10T23:38:13.909Z,101214.05
2023-05-10T23:43:17.753Z,101218.93
2023-05-10T23:48:20.890Z,101217.37
2023-05-10T23:53:23.628Z,101218.92
2023-05-10T23:58:26.355Z,101216.56
